createdAt,value
2023-01-07T00:00:10.761Z,1.20
2023-01-07T00:05:15.705Z,0.82
2023-01-07T00:10:17.576Z,1.10
2023-01-07T00:15:19.725Z,1.02
2023-01-07T00:20:21.601Z,0.70
2023-01-07T00:25:23.778Z,0.98
2023-01-07T00:30:25.596Z,0.88
2023-01-07T00:35:28.442Z,0.93
2023-01-07T00:40:31.834Z,0.90
2023-01-07T00:45:36.552Z,1.00
2023-01-07T00:50:39.006Z,1.13
2023-01-07T00:55:41.077Z,1.10
2023-01-07T01:00:43.427Z,0.82
2023-01-07T01:05:45.410Z,1.13
2023-01-07T01:10:48.247Z,1.00
2023-01-07T01:15:50.239Z,0.95
2023-01-07T01:20:52.236Z,1.00
2023-01-07T01:26:03.363Z,0.90
2023-01-07T01:31:05.996Z,0.88
2023-01-07T01:36:18.330Z,0.88
2023-01-07T01:41:20.560Z,0.90
2023-01-07T01:46:25.322Z,0.60
2023-01-07T01:51:34.735Z,0.60
2023-01-07T01:56:40.675Z,0.80
2023-01-07T02:01:42.856Z,0.63
2023-01-07T02:07:10.837Z,0.68
2023-01-07T02:12:16.779Z,0.73
2023-01-07T02:17:33.832Z,0.55
2023-01-07T02:23:00.047Z,0.80
2023-01-07T02:28:04.497Z,0.75
2023-01-07T02:33:15.561Z,1.00
2023-01-07T02:38:55.052Z,0.75
2023-01-07T02:44:31.607Z,0.60
2023-01-07T02:49:34.591Z,0.60
2023-01-07T02:54:39.127Z,0.70
2023-01-07T02:59:56.377Z,0.47
2023-01-07T03:04:58.330Z,0.60
2023-01-07T03:10:31.037Z,0.60
2023-01-07T03:15:48.566Z,0.70
2023-01-07T03:20:57.386Z,0.57
2023-01-07T03:26:05.054Z,0.60
2023-01-07T03:31:12.233Z,0.55
2023-01-07T03:36:18.680Z,0.50
2023-01-07T03:41:39.758Z,0.60
2023-01-07T03:46:42.619Z,0.88
2023-01-07T03:51:46.070Z,0.50
2023-01-07T03:56:48.078Z,0.57
2023-01-07T04:01:50.399Z,0.47
2023-01-07T04:06:53.147Z,0.40
2023-01-07T04:11:55.520Z,0.43
2023-01-07T04:17:00.371Z,0.70
2023-01-07T04:22:03.058Z,0.50
2023-01-07T04:27:08.525Z,0.47
2023-01-07T04:32:13.716Z,0.50
2023-01-07T04:37:17.360Z,0.40
2023-01-07T04:42:19.760Z,0.50
2023-01-07T04:47:25.800Z,0.50
2023-01-07T04:52:28.460Z,0.28
2023-01-07T04:57:30.515Z,0.40
2023-01-07T05:02:33.809Z,0.40
2023-01-07T05:07:35.847Z,0.60
2023-01-07T05:12:39.309Z,0.50
2023-01-07T05:17:44.060Z,0.68
2023-01-07T05:22:46.520Z,0.50
2023-01-07T05:27:48.452Z,0.70
2023-01-07T05:32:51.314Z,0.60
2023-01-07T05:37:53.342Z,0.55
2023-01-07T05:42:56.030Z,0.73
2023-01-07T05:47:57.974Z,0.60
2023-01-07T05:53:00.009Z,0.80
2023-01-07T05:58:01.776Z,0.40
2023-01-07T06:03:05.043Z,0.47
2023-01-07T06:08:06.873Z,0.40
2023-01-07T06:13:08.617Z,0.60
2023-01-07T06:18:10.491Z,0.50
2023-01-07T06:23:12.292Z,0.60
2023-01-07T06:28:18.165Z,0.60
2023-01-07T06:33:20.394Z,0.90
2023-01-07T06:38:22.154Z,0.88
2023-01-07T06:43:24.079Z,0.60
2023-01-07T06:48:26.627Z,1.15
2023-01-07T06:53:28.442Z,0.75
2023-01-07T06:58:30.276Z,0.55
2023-01-07T07:03:32.512Z,0.50
2023-01-07T07:08:34.383Z,0.75
2023-01-07T07:13:36.218Z,0.50
2023-01-07T07:18:38.002Z,0.50
2023-01-07T07:23:39.880Z,0.60
2023-01-07T07:28:43.030Z,0.57
2023-01-07T07:33:45.321Z,0.88
2023-01-07T07:38:47.247Z,0.70
2023-01-07T07:43:49.050Z,0.38
2023-01-07T07:48:51.216Z,0.70
2023-01-07T07:53:53.094Z,0.70
2023-01-07T07:58:54.950Z,0.70
2023-01-07T08:03:56.785Z,0.50
2023-01-07T08:08:58.625Z,0.70
2023-01-07T08:14:00.554Z,0.82
2023-01-07T08:19:02.418Z,1.08
2023-01-07T08:24:04.710Z,1.10
2023-01-07T08:29:06.654Z,0.65
2023-01-07T08:34:08.419Z,0.77
2023-01-07T08:39:11.923Z,0.70
2023-01-07T08:44:13.682Z,0.70
2023-01-07T08:49:15.889Z,0.60
2023-01-07T08:54:17.708Z,0.68
2023-01-07T08:59:19.485Z,0.60
2023-01-07T09:04:21.204Z,0.60
2023-01-07T09:09:24.056Z,0.60
2023-01-07T09:14:25.887Z,0.60
2023-01-07T09:19:28.101Z,0.65
2023-01-07T09:24:29.961Z,0.60
2023-01-07T09:29:32.015Z,0.60
2023-01-07T09:34:33.978Z,0.60
2023-01-07T09:39:35.968Z,0.50
2023-01-07T09:45:04.174Z,0.85
2023-01-07T09:50:19.548Z,0.95
2023-01-07T09:55:26.200Z,0.65
2023-01-07T10:00:29.968Z,0.70
2023-01-07T10:05:53.560Z,2.22
2023-01-07T10:11:04.337Z,0.88
2023-01-07T10:16:36.904Z,0.65
2023-01-07T10:21:55.307Z,0.73
2023-01-07T10:27:03.400Z,0.60
2023-01-07T10:32:21.133Z,0.50
2023-01-07T10:37:38.301Z,0.65
2023-01-07T10:43:01.144Z,0.40
2023-01-07T10:48:18.180Z,0.57
2023-01-07T10:53:33.858Z,0.70
2023-01-07T10:58:42.343Z,0.40
2023-01-07T11:03:46.531Z,0.65
2023-01-07T11:08:50.348Z,0.68
2023-01-07T11:14:19.361Z,0.57
2023-01-07T11:19:21.719Z,0.90
2023-01-07T11:24:34.859Z,1.00
2023-01-07T11:29:45.088Z,0.70
2023-01-07T11:35:00.095Z,0.40
2023-01-07T11:40:16.486Z,0.52
2023-01-07T11:45:20.661Z,0.30
2023-01-07T11:50:25.603Z,3.75
2023-01-07T11:55:28.971Z,0.60
2023-01-07T12:00:31.692Z,0.60
2023-01-07T12:05:33.575Z,0.63
2023-01-07T12:10:38.088Z,0.93
2023-01-07T12:15:55.681Z,0.57
2023-01-07T12:21:27.498Z,0.43
2023-01-07T12:26:50.352Z,0.43
2023-01-07T12:32:22.381Z,0.80
2023-01-07T12:37:43.686Z,0.50
2023-01-07T12:42:52.327Z,0.68
2023-01-07T12:48:02.490Z,0.60
2023-01-07T12:53:19.556Z,0.70
2023-01-07T12:58:47.059Z,0.70
2023-01-07T13:04:13.583Z,1.00
2023-01-07T13:09:31.421Z,1.00
2023-01-07T13:14:56.592Z,0.90
2023-01-07T13:19:58.444Z,1.00
2023-01-07T13:25:26.456Z,0.93
2023-01-07T13:30:43.205Z,1.52
2023-01-07T13:36:14.357Z,1.30
2023-01-07T13:41:25.881Z,1.08
2023-01-07T13:46:35.622Z,1.38
2023-01-07T13:51:38.600Z,1.75
2023-01-07T13:56:40.613Z,1.70
2023-01-07T14:02:16.480Z,1.65
2023-01-07T14:07:19.831Z,2.22
2023-01-07T14:12:47.970Z,2.03
2023-01-07T14:18:17.748Z,1.30
2023-01-07T14:23:35.557Z,1.40
2023-01-07T14:28:52.606Z,1.00
2023-01-07T14:34:04.916Z,0.85
2023-01-07T14:39:33.598Z,0.90
2023-01-07T14:44:35.606Z,1.05
2023-01-07T14:50:08.460Z,0.80
2023-01-07T14:55:31.067Z,2.35
2023-01-07T15:01:05.481Z,1.95
2023-01-07T15:06:27.752Z,1.30
2023-01-07T15:11:49.051Z,1.30
2023-01-07T15:16:53.550Z,1.77
2023-01-07T15:22:00.895Z,1.27
2023-01-07T15:27:10.210Z,1.33
2023-01-07T15:32:15.097Z,1.52
2023-01-07T15:37:18.305Z,1.58
2023-01-07T15:42:22.635Z,1.55
2023-01-07T15:47:41.621Z,1.98
2023-01-07T15:53:00.137Z,2.28
2023-01-07T15:58:08.862Z,2.30
2023-01-07T16:03:16.912Z,2.78
2023-01-07T16:08:25.176Z,2.85
2023-01-07T16:13:27.062Z,2.22
2023-01-07T16:18:33.476Z,2.30
2023-01-07T16:23:37.956Z,2.72
2023-01-07T16:28:55.959Z,2.72
2023-01-07T16:33:59.781Z,2.47
2023-01-07T16:39:11.224Z,2.80
2023-01-07T16:44:48.723Z,3.38
2023-01-07T16:50:10.069Z,10.98
2023-01-07T16:55:52.466Z,10.45
2023-01-07T17:00:56.985Z,9.02
2023-01-07T17:05:58.822Z,9.32
2023-01-07T17:11:09.709Z,8.07
2023-01-07T17:16:15.515Z,7.18
2023-01-07T17:21:37.747Z,5.55
2023-01-07T17:26:42.350Z,5.78
2023-01-07T17:31:44.310Z,5.68
2023-01-07T17:36:46.129Z,5.13
2023-01-07T17:42:07.017Z,6.13
2023-01-07T17:47:11.959Z,6.32
2023-01-07T17:52:13.792Z,5.15
2023-01-07T17:57:15.556Z,5.10
2023-01-07T18:02:19.276Z,4.82
2023-01-07T18:07:21.383Z,5.45
2023-01-07T18:12:35.604Z,5.70
2023-01-07T18:17:38.428Z,6.22
2023-01-07T18:22:43.440Z,4.97
2023-01-07T18:27:45.786Z,6.72
2023-01-07T18:32:50.632Z,7.22
2023-01-07T18:37:52.458Z,7.57
2023-01-07T18:42:55.442Z,6.75
2023-01-07T18:47:57.218Z,6.20
2023-01-07T18:52:59.044Z,6.93
2023-01-07T18:58:00.871Z,5.30
2023-01-07T19:03:02.954Z,5.32
2023-01-07T19:08:04.901Z,4.75
2023-01-07T19:13:07.872Z,4.53
2023-01-07T19:18:09.819Z,3.55
2023-01-07T19:23:12.069Z,3.97
2023-01-07T19:28:13.954Z,7.50
2023-01-07T19:33:15.940Z,8.30
2023-01-07T19:38:17.830Z,8.25
2023-01-07T19:43:19.698Z,8.15
2023-01-07T19:48:22.058Z,8.15
2023-01-07T19:53:25.120Z,7.75
2023-01-07T19:58:28.001Z,7.40
2023-01-07T20:03:39.209Z,8.55
2023-01-07T20:08:44.242Z,8.50
2023-01-07T20:13:48.125Z,7.95
2023-01-07T20:18:52.961Z,7.25
2023-01-07T20:23:55.812Z,7.45
2023-01-07T20:29:23.578Z,6.88
2023-01-07T20:34:27.544Z,6.60
2023-01-07T20:39:31.611Z,5.75
2023-01-07T20:44:34.731Z,4.25
2023-01-07T20:49:36.759Z,4.30
2023-01-07T20:54:38.662Z,4.45
2023-01-07T20:59:42.857Z,4.32
2023-01-07T21:04:44.812Z,5.03
2023-01-07T21:09:46.763Z,4.35
2023-01-07T21:14:52.660Z,4.70
2023-01-07T21:19:55.900Z,4.90
2023-01-07T21:24:58.004Z,4.28
2023-01-07T21:30:05.857Z,5.15
2023-01-07T21:35:09.835Z,4.63
2023-01-07T21:40:11.719Z,5.32
2023-01-07T21:45:14.396Z,4.63
2023-01-07T21:50:16.787Z,5.72
2023-01-07T21:55:18.698Z,5.13
2023-01-07T22:00:20.601Z,5.13
2023-01-07T22:05:22.473Z,6.05
2023-01-07T22:10:25.380Z,4.47
2023-01-07T22:15:27.470Z,5.88
2023-01-07T22:20:29.295Z,5.50
2023-01-07T22:25:32.631Z,5.35
2023-01-07T22:30:36.894Z,5.80
2023-01-07T22:35:38.769Z,5.57
2023-01-07T22:40:41.020Z,4.55
2023-01-07T22:45:46.737Z,5.38
2023-01-07T22:51:03.465Z,4.35
2023-01-07T22:56:05.821Z,4.28
2023-01-07T23:01:14.000Z,4.22
2023-01-07T23:06:16.894Z,4.20
2023-01-07T23:11:37.129Z,5.13
2023-01-07T23:16:39.110Z,4.63
2023-01-07T23:21:43.537Z,5.03
2023-01-07T23:26:47.639Z,5.20
2023-01-07T23:31:49.975Z,4.70
2023-01-07T23:36:52.125Z,4.03
2023-01-07T23:41:53.983Z,3.97
2023-01-07T23:46:55.828Z,4.45
2023-01-07T23:51:58.303Z,4.22
2023-01-07T23:57:01.493Z,3.85
